createdAt,value
2019-01-31T00:00:30.627Z,1.73
2019-01-31T00:04:19.319Z,1.60
2019-01-31T00:08:45.927Z,2.00
2019-01-31T00:11:58.272Z,1.73
2019-01-31T00:15:20.383Z,1.70
2019-01-31T00:18:55.718Z,1.97
2019-01-31T00:23:00.984Z,1.97
2019-01-31T00:27:00.435Z,2.00
2019-01-31T00:30:17.370Z,2.00
2019-01-31T00:34:04.331Z,1.97
2019-01-31T00:37:49.179Z,1.60
2019-01-31T00:41:36.619Z,1.60
2019-01-31T00:45:06.224Z,1.80
2019-01-31T00:48:53.697Z,2.00
2019-01-31T00:52:54.495Z,2.03
2019-01-31T00:56:53.703Z,1.57
2019-01-31T01:00:25.480Z,1.57
2019-01-31T01:04:31.432Z,1.50
2019-01-31T01:08:29.470Z,1.53
2019-01-31T01:11:58.557Z,1.77
2019-01-31T01:15:20.874Z,1.43
2019-01-31T01:19:07.985Z,1.70
2019-01-31T01:22:32.623Z,1.70
2019-01-31T01:26:08.093Z,1.53
2019-01-31T01:29:53.864Z,1.13
2019-01-31T01:33:18.409Z,1.80
2019-01-31T01:36:41.710Z,1.60
2019-01-31T01:40:31.037Z,1.20
2019-01-31T01:44:00.174Z,1.50
2019-01-31T01:47:32.214Z,1.60
2019-01-31T01:51:08.957Z,1.30
2019-01-31T01:54:54.593Z,1.03
2019-01-31T01:58:22.214Z,1.33
2019-01-31T02:02:17.271Z,1.13
2019-01-31T02:06:00.592Z,1.43
2019-01-31T02:09:34.800Z,1.10
2019-01-31T02:13:09.612Z,1.60
2019-01-31T02:16:45.702Z,1.27
2019-01-31T02:20:23.893Z,1.73
2019-01-31T02:24:02.894Z,1.63
2019-01-31T02:27:24.557Z,0.97
2019-01-31T02:30:55.129Z,1.50
2019-01-31T02:34:25.493Z,1.40
2019-01-31T02:38:08.147Z,1.50
2019-01-31T02:41:52.915Z,1.60
2019-01-31T02:45:52.110Z,1.20
2019-01-31T02:49:36.665Z,1.27
2019-01-31T02:53:29.893Z,1.17
2019-01-31T02:57:19.891Z,1.10
2019-01-31T03:01:04.211Z,1.47
2019-01-31T03:04:48.540Z,0.90
2019-01-31T03:08:38.617Z,1.33
2019-01-31T03:12:14.266Z,1.00
2019-01-31T03:15:52.997Z,1.47
2019-01-31T03:19:42.494Z,0.93
2019-01-31T03:23:26.837Z,0.90
2019-01-31T03:27:23.348Z,1.10
2019-01-31T03:31:05.492Z,0.70
2019-01-31T03:34:44.270Z,0.70
2019-01-31T03:38:30.469Z,0.90
2019-01-31T03:41:52.049Z,0.90
2019-01-31T03:45:16.286Z,1.10
2019-01-31T03:48:41.975Z,1.20
2019-01-31T03:52:23.366Z,1.10
2019-01-31T03:56:07.082Z,1.10
2019-01-31T03:59:21.158Z,0.80
2019-01-31T04:02:38.365Z,1.17
2019-01-31T04:06:01.891Z,1.20
2019-01-31T04:09:10.653Z,1.40
2019-01-31T04:12:17.695Z,1.03
2019-01-31T04:15:24.184Z,1.00
2019-01-31T04:18:31.142Z,0.90
2019-01-31T04:21:38.763Z,1.17
2019-01-31T04:24:45.788Z,0.90
2019-01-31T04:27:52.326Z,1.30
2019-01-31T04:30:58.863Z,0.90
2019-01-31T04:34:06.563Z,1.90
2019-01-31T04:37:13.272Z,1.40
2019-01-31T04:40:31.132Z,1.13
2019-01-31T04:43:28.579Z,0.70
2019-01-31T04:46:36.175Z,0.70
2019-01-31T04:49:42.905Z,1.03
2019-01-31T04:52:49.534Z,1.00
2019-01-31T04:55:56.441Z,0.70
2019-01-31T04:59:03.256Z,1.00
2019-01-31T05:02:09.588Z,1.07
2019-01-31T05:05:16.174Z,0.70
2019-01-31T05:08:22.771Z,1.07
2019-01-31T05:11:30.291Z,0.90
2019-01-31T05:14:36.810Z,1.20
2019-01-31T05:17:43.135Z,1.13
2019-01-31T05:20:49.889Z,1.00
2019-01-31T05:23:56.180Z,1.20
2019-01-31T05:27:04.480Z,1.27
2019-01-31T05:30:12.197Z,1.23
2019-01-31T05:33:19.069Z,0.97
2019-01-31T05:36:25.804Z,1.00
2019-01-31T05:39:32.684Z,1.43
2019-01-31T05:42:39.245Z,1.00
2019-01-31T05:45:45.910Z,1.50
2019-01-31T05:48:52.441Z,3.20
2019-01-31T05:51:59.920Z,2.00
2019-01-31T05:55:07.036Z,2.53
2019-01-31T05:58:13.958Z,2.57
2019-01-31T06:01:20.935Z,2.50
2019-01-31T06:04:27.336Z,2.97
2019-01-31T06:07:34.116Z,2.97
2019-01-31T06:10:40.309Z,2.43
2019-01-31T06:13:47.065Z,1.70
2019-01-31T06:16:53.544Z,2.33
2019-01-31T06:20:00.098Z,2.60
2019-01-31T06:23:07.202Z,2.67
2019-01-31T06:26:14.239Z,2.57
2019-01-31T06:29:21.026Z,2.53
2019-01-31T06:32:28.021Z,2.00
2019-01-31T06:35:34.632Z,1.63
2019-01-31T06:38:41.542Z,2.03
2019-01-31T06:41:49.093Z,2.03
2019-01-31T06:44:56.913Z,2.43
2019-01-31T06:48:05.185Z,2.10
2019-01-31T06:51:12.232Z,1.60
2019-01-31T06:54:18.636Z,2.40
2019-01-31T06:57:25.097Z,2.43
2019-01-31T07:00:31.806Z,2.40
2019-01-31T07:03:38.301Z,2.80
2019-01-31T07:06:45.062Z,6.77
2019-01-31T07:09:51.428Z,9.07
2019-01-31T07:12:57.985Z,6.13
2019-01-31T07:16:05.405Z,7.67
2019-01-31T07:19:11.891Z,10.77
2019-01-31T07:22:18.715Z,12.67
2019-01-31T07:25:26.406Z,46.97
2019-01-31T07:28:50.860Z,8.00
2019-01-31T07:31:57.584Z,23.97
2019-01-31T07:35:04.845Z,20.10
2019-01-31T07:38:11.228Z,29.03
2019-01-31T07:41:18.319Z,18.17
2019-01-31T07:44:25.104Z,44.70
2019-01-31T07:47:32.080Z,33.00
2019-01-31T07:50:39.201Z,30.80
2019-01-31T07:53:46.162Z,14.27
2019-01-31T07:56:52.702Z,18.43
2019-01-31T07:59:59.264Z,14.73
2019-01-31T08:03:06.904Z,24.87
2019-01-31T08:06:13.799Z,29.67
2019-01-31T08:09:20.351Z,23.23
2019-01-31T08:12:27.431Z,22.00
2019-01-31T08:15:33.936Z,22.00
2019-01-31T08:18:40.309Z,24.80
2019-01-31T08:21:47.840Z,14.60
2019-01-31T08:24:54.544Z,13.00
2019-01-31T08:28:01.807Z,15.77
2019-01-31T08:31:08.380Z,21.43
2019-01-31T08:34:15.290Z,18.90
2019-01-31T08:37:24.669Z,14.30
2019-01-31T08:40:31.790Z,10.60
2019-01-31T08:43:38.513Z,7.80
2019-01-31T08:46:45.021Z,6.40
2019-01-31T08:49:51.922Z,6.83
2019-01-31T08:52:58.970Z,5.30
2019-01-31T08:56:05.792Z,4.67
2019-01-31T08:59:12.119Z,3.47
2019-01-31T09:02:18.953Z,3.77
2019-01-31T09:05:25.543Z,2.77
2019-01-31T09:08:32.643Z,6.40
2019-01-31T09:11:39.315Z,4.20
2019-01-31T09:14:46.103Z,2.70
2019-01-31T09:17:52.482Z,2.10
2019-01-31T09:21:28.732Z,1.40
2019-01-31T09:25:18.586Z,0.93
2019-01-31T09:29:07.465Z,1.00
2019-01-31T09:32:49.577Z,1.10
2019-01-31T09:36:43.159Z,0.67
2019-01-31T09:40:21.075Z,0.83
2019-01-31T09:43:53.110Z,0.93
2019-01-31T09:47:44.367Z,1.00
2019-01-31T09:51:17.028Z,0.70
2019-01-31T09:54:41.888Z,1.10
2019-01-31T09:58:23.531Z,0.70
2019-01-31T10:02:02.424Z,0.90
2019-01-31T10:06:05.279Z,0.77
2019-01-31T10:09:46.042Z,0.90
2019-01-31T10:13:54.757Z,1.17
2019-01-31T10:17:33.991Z,1.10
2019-01-31T10:21:01.010Z,1.00
2019-01-31T10:24:59.419Z,0.57
2019-01-31T10:28:42.396Z,0.93
2019-01-31T10:32:31.016Z,1.00
2019-01-31T10:36:00.492Z,1.00
2019-01-31T10:39:35.482Z,0.60
2019-01-31T10:42:52.978Z,0.53
2019-01-31T10:46:06.748Z,1.10
2019-01-31T10:50:12.255Z,0.70
2019-01-31T10:53:50.492Z,0.57
2019-01-31T10:57:26.436Z,0.60
2019-01-31T11:01:05.459Z,0.47
2019-01-31T11:04:48.550Z,0.90
2019-01-31T11:09:08.048Z,0.50
2019-01-31T11:13:00.218Z,1.10
2019-01-31T11:16:48.656Z,0.80
2019-01-31T11:20:17.177Z,0.40
2019-01-31T11:23:55.108Z,0.50
2019-01-31T11:28:08.167Z,0.60
2019-01-31T11:31:56.075Z,0.57
2019-01-31T11:35:39.007Z,0.60
2019-01-31T11:39:20.639Z,0.60
2019-01-31T11:43:26.632Z,0.60
2019-01-31T11:47:04.396Z,0.60
2019-01-31T11:50:43.872Z,0.40
2019-01-31T11:54:43.888Z,0.40
2019-01-31T11:58:23.112Z,0.80
2019-01-31T12:01:29.790Z,0.53
2019-01-31T12:04:36.482Z,0.70
2019-01-31T12:07:43.182Z,0.60
2019-01-31T12:10:49.588Z,0.70
2019-01-31T12:13:56.270Z,0.93
2019-01-31T12:17:02.799Z,0.80
2019-01-31T12:20:13.516Z,0.60
2019-01-31T12:23:20.463Z,0.70
2019-01-31T12:26:26.811Z,0.63
2019-01-31T12:29:33.465Z,0.90
2019-01-31T12:32:39.893Z,0.90
2019-01-31T12:35:47.315Z,0.87
2019-01-31T12:38:54.956Z,0.90
2019-01-31T12:42:01.591Z,0.80
2019-01-31T12:45:10.622Z,2.17
2019-01-31T12:48:18.200Z,0.97
2019-01-31T12:51:24.757Z,0.70
2019-01-31T12:54:31.157Z,2.10
2019-01-31T12:57:37.718Z,1.13
2019-01-31T13:00:44.472Z,1.10
2019-01-31T13:03:50.985Z,1.40
2019-01-31T13:06:59.383Z,1.30
2019-01-31T13:10:06.173Z,1.30
2019-01-31T13:13:12.908Z,0.90
2019-01-31T13:16:19.439Z,1.00
2019-01-31T13:19:25.966Z,0.60
2019-01-31T13:22:32.956Z,1.00
2019-01-31T13:25:39.545Z,0.80
2019-01-31T13:28:46.739Z,1.00
2019-01-31T13:31:53.564Z,1.10
2019-01-31T13:35:00.223Z,1.00
2019-01-31T13:38:07.339Z,0.90
2019-01-31T13:41:14.269Z,1.37
2019-01-31T13:44:21.252Z,0.67
2019-01-31T13:47:27.863Z,1.10
2019-01-31T13:50:34.803Z,1.10
2019-01-31T13:53:41.430Z,1.60
2019-01-31T13:56:48.175Z,1.00
2019-01-31T13:59:55.012Z,1.60
2019-01-31T14:03:01.506Z,1.30
2019-01-31T14:06:09.101Z,1.67
2019-01-31T14:09:16.187Z,1.20
2019-01-31T14:12:23.405Z,0.80
2019-01-31T14:15:33.904Z,1.03
2019-01-31T14:18:40.094Z,1.43
2019-01-31T14:21:50.672Z,1.20
2019-01-31T14:24:58.788Z,1.20
2019-01-31T14:28:05.979Z,1.17
2019-01-31T14:31:12.916Z,1.20
2019-01-31T14:34:19.601Z,1.50
2019-01-31T14:37:26.066Z,1.57
2019-01-31T14:40:33.141Z,1.23
2019-01-31T14:43:39.498Z,1.13
2019-01-31T14:46:46.391Z,1.10
2019-01-31T14:49:53.624Z,0.87
2019-01-31T14:53:02.570Z,1.20
2019-01-31T14:56:09.848Z,1.00
2019-01-31T14:59:17.219Z,1.00
2019-01-31T15:02:24.630Z,0.87
2019-01-31T15:05:33.098Z,1.00
2019-01-31T15:08:40.691Z,0.90
2019-01-31T15:11:49.005Z,0.90
2019-01-31T15:14:55.805Z,1.00
2019-01-31T15:18:02.467Z,0.83
2019-01-31T15:21:09.671Z,1.07
2019-01-31T15:24:16.811Z,1.47
2019-01-31T15:27:23.420Z,1.40
2019-01-31T15:30:31.965Z,1.80
2019-01-31T15:33:38.130Z,1.23
2019-01-31T15:36:44.672Z,1.60
2019-01-31T15:39:52.188Z,1.40
2019-01-31T15:42:59.010Z,1.60
2019-01-31T15:46:08.875Z,1.50
2019-01-31T15:49:15.703Z,1.20
2019-01-31T15:52:22.292Z,1.13
2019-01-31T15:55:29.125Z,1.67
2019-01-31T15:58:35.904Z,1.40
2019-01-31T16:01:43.150Z,1.57
2019-01-31T16:04:49.836Z,1.30
2019-01-31T16:07:56.730Z,1.20
2019-01-31T16:11:03.225Z,1.50
2019-01-31T16:14:09.591Z,1.30
2019-01-31T16:17:18.601Z,1.93
2019-01-31T16:20:25.396Z,0.93
2019-01-31T16:23:32.459Z,1.23
2019-01-31T16:26:39.334Z,1.20
2019-01-31T16:29:47.997Z,1.20
2019-01-31T16:32:54.737Z,1.20
2019-01-31T16:36:01.237Z,1.37
2019-01-31T16:39:09.915Z,1.03
2019-01-31T16:42:17.257Z,1.27
2019-01-31T16:45:23.844Z,1.20
2019-01-31T16:48:30.458Z,2.70
2019-01-31T16:51:40.167Z,2.00
2019-01-31T16:54:46.891Z,1.70
2019-01-31T16:57:54.203Z,1.90
2019-01-31T17:01:01.189Z,2.03
2019-01-31T17:04:08.113Z,2.70
2019-01-31T17:07:14.854Z,4.10
2019-01-31T17:10:21.981Z,6.63
2019-01-31T17:13:29.541Z,4.07
2019-01-31T17:16:36.745Z,3.50
2019-01-31T17:19:44.319Z,3.37
2019-01-31T17:22:51.181Z,15.97
2019-01-31T17:25:58.531Z,7.63
2019-01-31T17:29:05.200Z,6.10
2019-01-31T17:32:11.821Z,6.87
2019-01-31T17:35:18.547Z,6.30
2019-01-31T17:38:25.316Z,14.00
2019-01-31T17:41:32.720Z,17.40
2019-01-31T17:44:39.421Z,20.20
2019-01-31T17:47:46.230Z,9.57
2019-01-31T17:50:53.060Z,7.73
2019-01-31T17:54:01.660Z,13.57
2019-01-31T17:57:08.570Z,15.70
2019-01-31T18:00:46.583Z,8.50
2019-01-31T18:03:53.275Z,8.70
2019-01-31T18:07:00.453Z,11.50
2019-01-31T18:10:10.972Z,13.93
2019-01-31T18:13:21.218Z,15.30
2019-01-31T18:16:27.726Z,11.50
2019-01-31T18:19:34.301Z,5.90
2019-01-31T18:22:41.286Z,6.27
2019-01-31T18:25:47.837Z,7.40
2019-01-31T18:28:54.394Z,10.13
2019-01-31T18:32:01.369Z,10.70
2019-01-31T18:35:09.460Z,12.97
2019-01-31T18:38:15.863Z,14.40
2019-01-31T18:41:22.856Z,13.57
2019-01-31T18:44:29.849Z,13.60
2019-01-31T18:47:36.533Z,10.90
2019-01-31T18:50:44.370Z,10.20
2019-01-31T18:53:53.281Z,8.40
2019-01-31T18:57:00.613Z,8.37
2019-01-31T19:00:14.142Z,8.10
2019-01-31T19:03:20.986Z,6.43
2019-01-31T19:06:28.132Z,6.63
2019-01-31T19:09:35.009Z,6.47
2019-01-31T19:12:42.387Z,7.50
2019-01-31T19:15:49.033Z,7.43
2019-01-31T19:18:55.637Z,7.57
2019-01-31T19:22:02.572Z,7.97
2019-01-31T19:25:09.429Z,12.20
2019-01-31T19:28:16.374Z,27.13
2019-01-31T19:31:23.079Z,36.80
2019-01-31T19:34:31.362Z,25.53
2019-01-31T19:37:38.516Z,20.50
2019-01-31T19:40:47.850Z,18.97
2019-01-31T19:43:54.882Z,18.40
2019-01-31T19:47:01.652Z,13.90
2019-01-31T19:50:09.018Z,9.40
2019-01-31T19:53:16.179Z,8.70
2019-01-31T19:56:24.441Z,7.80
2019-01-31T19:59:32.580Z,6.97
2019-01-31T20:02:39.975Z,6.77
2019-01-31T20:05:52.441Z,5.90
2019-01-31T20:08:59.052Z,6.20
2019-01-31T20:12:05.981Z,6.67
2019-01-31T20:15:13.774Z,6.57
2019-01-31T20:18:22.941Z,6.87
2019-01-31T20:21:29.388Z,6.77
2019-01-31T20:24:36.594Z,5.70
2019-01-31T20:27:45.759Z,5.60
2019-01-31T20:30:52.773Z,14.67
2019-01-31T20:34:02.054Z,14.07
2019-01-31T20:37:11.332Z,6.70
2019-01-31T20:40:23.616Z,6.10
2019-01-31T20:43:30.609Z,7.00
2019-01-31T20:46:40.184Z,9.83
2019-01-31T20:49:46.203Z,7.40
2019-01-31T20:52:53.141Z,7.17
2019-01-31T20:56:00.071Z,10.00
2019-01-31T20:59:07.013Z,18.87
2019-01-31T21:02:14.029Z,12.00
2019-01-31T21:05:22.306Z,10.83
2019-01-31T21:08:30.809Z,14.53
2019-01-31T21:11:38.436Z,9.93
2019-01-31T21:14:45.870Z,11.80
2019-01-31T21:17:52.582Z,8.43
2019-01-31T21:20:59.542Z,6.47
2019-01-31T21:24:06.377Z,7.60
2019-01-31T21:27:13.019Z,26.50
2019-01-31T21:30:25.497Z,15.10
2019-01-31T21:33:32.829Z,8.20
2019-01-31T21:36:40.116Z,8.93
2019-01-31T21:39:46.871Z,8.90
2019-01-31T21:42:53.487Z,7.53
2019-01-31T21:46:00.326Z,5.53
2019-01-31T21:49:07.124Z,5.20
2019-01-31T21:52:13.917Z,9.90
2019-01-31T21:55:20.452Z,10.07
2019-01-31T21:58:26.850Z,5.27
2019-01-31T22:01:33.919Z,4.70
2019-01-31T22:04:42.160Z,4.70
2019-01-31T22:07:50.480Z,5.43
2019-01-31T22:10:57.936Z,6.47
2019-01-31T22:14:05.312Z,5.50
2019-01-31T22:17:14.780Z,7.20
2019-01-31T22:20:20.650Z,5.43
2019-01-31T22:23:27.646Z,5.03
2019-01-31T22:26:34.980Z,5.93
2019-01-31T22:29:41.549Z,6.57
2019-01-31T22:32:48.024Z,6.40
2019-01-31T22:35:56.703Z,7.87
2019-01-31T22:39:03.395Z,6.70
2019-01-31T22:42:10.844Z,7.30
2019-01-31T22:45:18.937Z,8.07
2019-01-31T22:48:25.355Z,12.20
2019-01-31T22:51:31.999Z,8.90
2019-01-31T22:54:38.839Z,12.03
2019-01-31T22:57:45.507Z,15.53
2019-01-31T23:01:26.269Z,11.30
2019-01-31T23:04:33.324Z,8.43
2019-01-31T23:07:39.719Z,9.33
2019-01-31T23:10:46.409Z,10.37
2019-01-31T23:13:53.100Z,6.27
2019-01-31T23:16:59.728Z,8.27
2019-01-31T23:20:07.615Z,6.70
2019-01-31T23:23:13.759Z,5.60
2019-01-31T23:26:20.479Z,6.20
2019-01-31T23:29:27.421Z,5.40
2019-01-31T23:32:33.871Z,6.60
2019-01-31T23:35:40.666Z,6.50
2019-01-31T23:38:47.155Z,6.33
2019-01-31T23:41:53.563Z,6.40
2019-01-31T23:44:59.905Z,5.87
2019-01-31T23:48:06.342Z,5.60
2019-01-31T23:51:12.982Z,5.90
2019-01-31T23:54:19.206Z,6.90
2019-01-31T23:57:25.511Z,7.10
